Time;durP1;ratioP1;P1;durP2;ratioP2;P2;SDS_P1;SDS_P2;PMS_P1;PMS_P2;Temp;Humidity;BMP_temperature;BMP_pressure;BME280_temperature;BME280_humidity;BME280_pressure;Samples;Min_cycle;Max_cycle;Signal;HPM_P1;HPM_P2
2021/01/14 00:00:23;;;;;;;8.80;4.53;;;;;;;3.01;100.00;97161.03;5052792;28;20292;-73
2021/01/14 00:02:49;;;;;;;10.33;4.77;;;;;;;2.93;100.00;97156.38;5052123;28;20217;-72
2021/01/14 00:05:16;;;;;;;7.07;3.87;;;;;;;2.91;100.00;97152.31;5034412;28;20260;-74
2021/01/14 00:07:42;;;;;;;7.73;4.57;;;;;;;2.96;100.00;97152.19;5052540;28;20265;-72
2021/01/14 00:10:11;;;;;;;10.40;5.30;;;;;;;2.91;100.00;97149.59;5034950;28;20209;-73
2021/01/14 00:12:38;;;;;;;8.00;4.47;;;;;;;2.96;100.00;97138.56;5052019;28;20229;-74
2021/01/14 00:15:05;;;;;;;8.23;4.60;;;;;;;2.97;100.00;97142.91;5051623;28;20249;-72
2021/01/14 00:17:32;;;;;;;9.43;4.50;;;;;;;2.93;100.00;97139.19;5052804;28;20258;-73
2021/01/14 00:19:58;;;;;;;8.80;5.40;;;;;;;2.98;100.00;97133.59;5051287;28;20210;-74
2021/01/14 00:22:25;;;;;;;6.87;4.70;;;;;;;3.03;100.00;97130.75;5043794;28;20234;-73
2021/01/14 00:24:51;;;;;;;8.07;5.10;;;;;;;3.03;100.00;97125.28;5046940;28;20229;-74
2021/01/14 00:27:17;;;;;;;8.33;4.70;;;;;;;3.07;100.00;97137.19;5058695;28;20234;-74
2021/01/14 00:29:43;;;;;;;8.37;5.17;;;;;;;3.02;100.00;97140.03;5059202;28;20206;-72
2021/01/14 00:32:09;;;;;;;7.80;5.23;;;;;;;3.01;100.00;97139.25;5054612;28;20216;-72
2021/01/14 00:34:37;;;;;;;9.13;4.70;;;;;;;2.94;100.00;97146.25;5055164;28;20309;-72
2021/01/14 00:39:59;;;;;;;5.97;4.77;;;;;;;2.94;100.00;97155.22;5037188;28;20648;-72
2021/01/14 00:42:25;;;;;;;8.37;4.63;;;;;;;3.03;100.00;97153.34;5052250;28;20201;-74
2021/01/14 00:44:51;;;;;;;8.23;4.67;;;;;;;2.85;100.00;97154.38;5051398;28;20209;-73
2021/01/14 00:47:17;;;;;;;8.00;4.50;;;;;;;2.86;100.00;97152.47;5035739;28;20312;-74
2021/01/14 00:49:43;;;;;;;6.30;4.20;;;;;;;2.98;100.00;97149.97;5052369;28;20678;-72
2021/01/14 00:52:10;;;;;;;10.57;4.90;;;;;;;2.96;100.00;97161.19;5034480;28;20686;-72
2021/01/14 00:54:39;;;;;;;8.53;4.40;;;;;;;2.97;100.00;97159.25;5050459;28;20307;-73
2021/01/14 00:57:09;;;;;;;7.20;4.33;;;;;;;3.06;100.00;97151.94;5051643;28;20325;-72
2021/01/14 01:34:03;;;;;;;7.17;4.50;;;;;;;3.34;100.00;97175.13;5108365;27;20561;-73
2021/01/14 01:36:29;;;;;;;6.27;4.63;;;;;;;3.30;100.00;97174.19;5109042;28;20195;-73
2021/01/14 01:38:55;;;;;;;8.87;4.73;;;;;;;3.34;100.00;97172.41;5109015;28;20234;-73
2021/01/14 01:41:22;;;;;;;7.50;5.03;;;;;;;3.37;100.00;97177.25;5108719;28;20698;-73
2021/01/14 01:43:49;;;;;;;9.10;4.77;;;;;;;3.41;100.00;97183.69;5106823;28;20264;-73
2021/01/14 01:46:24;;;;;;;6.33;4.70;;;;;;;3.49;100.00;97174.72;5108413;28;20253;-71
2021/01/14 01:48:50;;;;;;;5.37;4.30;;;;;;;3.42;100.00;97166.19;5108720;28;20684;-71
2021/01/14 01:51:18;;;;;;;15.43;4.30;;;;;;;3.36;100.00;97180.31;5108762;28;20577;-71
2021/01/14 01:53:44;;;;;;;8.97;4.57;;;;;;;3.35;100.00;97181.41;5107501;28;20220;-72
2021/01/14 01:56:10;;;;;;;10.37;4.60;;;;;;;3.43;100.00;97167.78;5108684;28;20257;-71
2021/01/14 01:58:40;;;;;;;6.77;4.47;;;;;;;3.47;100.00;97171.50;5108752;28;20282;-71
2021/01/14 02:01:10;;;;;;;7.37;4.50;;;;;;;3.39;100.00;97166.84;5108492;28;20303;-71
2021/01/14 02:03:37;;;;;;;10.20;5.03;;;;;;;3.37;100.00;97158.16;5107758;28;20201;-72
2021/01/14 02:06:03;;;;;;;7.80;4.50;;;;;;;3.52;100.00;97160.44;5108207;28;20230;-72
2021/01/14 02:08:40;;;;;;;7.87;4.40;;;;;;;3.54;100.00;97162.88;5106848;28;20763;-70
2021/01/14 02:11:17;;;;;;;8.73;4.60;;;;;;;3.43;100.00;97173.25;5108635;28;20227;-72
2021/01/14 02:14:01;;;;;;;7.30;4.30;;;;;;;3.49;100.00;97171.19;5107495;28;20310;-71
2021/01/14 02:16:28;;;;;;;7.63;4.27;;;;;;;3.53;100.00;97175.72;5108220;28;20298;-70
2021/01/14 02:18:55;;;;;;;7.20;4.40;;;;;;;3.49;100.00;97172.00;5108094;28;20311;-71
2021/01/14 02:21:24;;;;;;;7.07;4.30;;;;;;;3.54;100.00;97171.06;5108832;28;20240;-71
2021/01/14 02:24:18;;;;;;;6.50;4.37;;;;;;;3.57;100.00;97173.97;5107570;28;20299;-71
2021/01/14 02:26:46;;;;;;;11.20;4.53;;;;;;;3.58;100.00;97183.75;5108537;28;20227;-72
2021/01/14 02:29:13;;;;;;;6.47;4.10;;;;;;;3.65;100.00;97186.81;5107830;28;20635;-72
2021/01/14 02:31:40;;;;;;;8.83;4.53;;;;;;;3.63;100.00;97202.69;5108299;28;20207;-72
2021/01/14 02:34:06;;;;;;;5.03;4.20;;;;;;;3.64;100.00;97217.94;5106454;28;20239;-72
2021/01/14 02:36:35;;;;;;;7.63;4.50;;;;;;;3.66;100.00;97223.88;5108206;28;20236;-72
2021/01/14 02:39:01;;;;;;;6.33;3.77;;;;;;;2.82;100.00;97214.94;5107839;28;20713;-72
2021/01/14 02:41:27;;;;;;;3.90;1.80;;;;;;;2.38;100.00;97222.25;5107849;28;20618;-72
2021/01/14 02:43:53;;;;;;;3.87;1.60;;;;;;;2.62;100.00;97222.78;5100428;28;20626;-73
2021/01/14 02:46:20;;;;;;;4.27;1.90;;;;;;;2.73;100.00;97222.25;5092901;28;20209;-71
2021/01/14 02:49:03;;;;;;;3.73;1.67;;;;;;;2.77;100.00;97230.59;5088368;28;20667;-71
2021/01/14 02:51:35;;;;;;;3.67;1.67;;;;;;;2.76;100.00;97227.06;5078342;28;20213;-71
2021/01/14 02:54:02;;;;;;;3.90;1.77;;;;;;;2.78;100.00;97238.47;5068796;28;20709;-71
2021/01/14 02:56:31;;;;;;;4.33;1.80;;;;;;;2.77;100.00;97236.06;5070411;28;20296;-71
2021/01/14 02:58:57;;;;;;;2.17;1.30;;;;;;;2.77;100.00;97231.38;5073454;28;20225;-71
2021/01/14 03:01:23;;;;;;;4.03;1.30;;;;;;;2.76;100.00;97235.25;5075670;28;20209;-72
2021/01/14 03:03:49;;;;;;;3.67;1.67;;;;;;;2.78;100.00;97232.19;5071832;28;20225;-71
2021/01/14 03:06:15;;;;;;;3.80;1.23;;;;;;;2.70;100.00;97230.25;5073026;28;20306;-72
2021/01/14 03:08:41;;;;;;;4.50;1.63;;;;;;;2.76;100.00;97240.69;5072768;28;20256;-71
2021/01/14 03:11:07;;;;;;;2.83;1.40;;;;;;;2.68;100.00;97243.34;5075868;28;20265;-71
2021/01/14 03:13:33;;;;;;;5.00;1.60;;;;;;;2.69;100.00;97262.09;5093115;28;20220;-71
2021/01/14 03:15:59;;;;;;;7.83;1.30;;;;;;;2.80;100.00;97255.31;5093513;28;20204;-71
2021/01/14 03:18:25;;;;;;;2.70;1.30;;;;;;;2.79;100.00;97261.06;5093026;28;20685;-71
2021/01/14 03:20:51;;;;;;;3.93;1.97;;;;;;;2.81;100.00;97277.91;5092076;28;20302;-72
2021/01/14 03:23:17;;;;;;;4.97;1.30;;;;;;;2.71;100.00;97264.50;5090719;28;20200;-70
2021/01/14 03:25:43;;;;;;;3.10;1.47;;;;;;;2.69;100.00;97272.19;5091947;28;20265;-70
2021/01/14 03:28:09;;;;;;;2.73;1.20;;;;;;;2.65;100.00;97272.00;5093666;28;20311;-71
2021/01/14 03:30:36;;;;;;;5.07;1.37;;;;;;;2.63;100.00;97274.22;5093065;28;20218;-71
2021/01/14 03:33:02;;;;;;;3.53;1.50;;;;;;;2.73;100.00;97274.00;5092448;28;20256;-69
2021/01/14 03:35:28;;;;;;;2.10;1.10;;;;;;;2.62;100.00;97280.78;5074703;28;20278;-71
2021/01/14 03:37:54;;;;;;;2.77;1.33;;;;;;;2.75;100.00;97282.66;5093009;28;20224;-71
2021/01/14 03:40:20;;;;;;;2.50;1.40;;;;;;;2.65;100.00;97282.06;5091937;28;20208;-71
2021/01/14 03:42:46;;;;;;;1.77;1.40;;;;;;;2.56;100.00;97283.91;5091590;28;20236;-72
2021/01/14 03:45:12;;;;;;;1.43;1.20;;;;;;;2.58;100.00;97278.97;5091362;28;20204;-71
2021/01/14 03:47:38;;;;;;;2.67;1.23;;;;;;;2.68;100.00;97281.47;5093205;28;20227;-72
2021/01/14 03:50:06;;;;;;;4.83;1.40;;;;;;;2.65;100.00;97276.63;5092959;28;20208;-72
2021/01/14 03:52:32;;;;;;;6.20;1.60;;;;;;;2.56;100.00;97278.47;5092536;28;20731;-71
2021/01/14 03:54:58;;;;;;;2.70;1.20;;;;;;;2.65;100.00;97290.25;5089985;28;20215;-71
2021/01/14 03:57:24;;;;;;;5.43;1.40;;;;;;;2.54;100.00;97294.31;5092344;28;20307;-71
2021/01/14 03:59:50;;;;;;;4.07;1.50;;;;;;;2.54;100.00;97291.59;5091591;28;20292;-70
2021/01/14 04:02:16;;;;;;;3.10;1.37;;;;;;;2.58;100.00;97303.47;5093250;28;20228;-70
2021/01/14 04:04:43;;;;;;;4.40;1.57;;;;;;;2.65;100.00;97309.31;5090187;28;20208;-70
2021/01/14 04:07:14;;;;;;;3.13;1.37;;;;;;;2.43;100.00;97310.06;5091149;28;20285;-71
2021/01/14 04:09:41;;;;;;;2.23;1.57;;;;;;;2.51;100.00;97308.53;5092625;28;20208;-71
2021/01/14 04:12:08;;;;;;;3.60;1.17;;;;;;;2.58;100.00;97312.47;5081240;28;20265;-70
2021/01/14 04:14:35;;;;;;;3.63;1.13;;;;;;;2.48;100.00;97309.16;5073250;28;20288;-70
2021/01/14 04:17:01;;;;;;;4.30;1.63;;;;;;;2.39;100.00;97321.88;5092531;28;20226;-70
2021/01/14 04:19:27;;;;;;;4.93;1.30;;;;;;;2.30;100.00;97313.59;5092153;28;20211;-71
2021/01/14 04:21:53;;;;;;;3.00;1.57;;;;;;;2.28;100.00;97320.50;5074138;28;20231;-70
2021/01/14 04:24:19;;;;;;;3.53;1.43;;;;;;;2.43;100.00;97320.13;5110954;28;20203;-71
2021/01/14 04:26:46;;;;;;;3.87;1.10;;;;;;;2.31;100.00;97319.88;5094569;28;20231;-71
2021/01/14 04:29:15;;;;;;;5.03;1.43;;;;;;;2.34;100.00;97316.53;5112593;28;20294;-72
2021/01/14 04:31:41;;;;;;;4.27;1.30;;;;;;;2.36;100.00;97331.47;5112259;28;20283;-70
2021/01/14 04:34:08;;;;;;;5.97;1.67;;;;;;;2.35;100.00;97332.59;5093805;28;20302;-71
2021/01/14 04:36:34;;;;;;;4.83;1.43;;;;;;;2.34;100.00;97336.41;5118981;28;20257;-71
2021/01/14 04:39:03;;;;;;;3.27;1.40;;;;;;;2.45;100.00;97337.78;5101871;28;20263;-71
2021/01/14 04:41:47;;;;;;;3.50;1.57;;;;;;;2.40;100.00;97345.25;5120625;28;20290;-70
2021/01/14 04:44:14;;;;;;;3.90;1.40;;;;;;;2.39;100.00;97349.09;5111262;28;20204;-70
2021/01/14 04:46:48;;;;;;;4.00;1.73;;;;;;;2.31;100.00;97355.25;5111857;28;20307;-70
2021/01/14 04:49:18;;;;;;;6.43;1.87;;;;;;;2.40;100.00;97350.72;5112483;28;20206;-71
2021/01/14 04:51:48;;;;;;;2.50;1.23;;;;;;;2.45;100.00;97358.75;5093977;28;20239;-71
2021/01/14 04:54:22;;;;;;;5.73;1.70;;;;;;;2.49;100.00;97362.50;5110998;28;20293;-71
2021/01/14 04:56:54;;;;;;;2.87;1.30;;;;;;;2.54;100.00;97373.28;5111793;28;20728;-72
2021/01/14 04:59:22;;;;;;;4.47;1.60;;;;;;;2.37;100.00;97373.09;5111809;28;20570;-71
2021/01/14 05:01:51;;;;;;;3.00;1.23;;;;;;;2.38;100.00;97371.97;5111870;28;20261;-71
2021/01/14 05:04:21;;;;;;;3.33;1.70;;;;;;;2.28;100.00;97378.44;5110746;28;20290;-71
2021/01/14 05:06:57;;;;;;;2.90;1.50;;;;;;;2.45;100.00;97365.03;5112076;28;20246;-72
2021/01/14 05:09:25;;;;;;;4.67;1.70;;;;;;;2.43;100.00;97367.25;5112253;28;20690;-72
2021/01/14 05:11:58;;;;;;;6.60;1.80;;;;;;;2.32;100.00;97374.00;5111560;28;20227;-72
2021/01/14 05:14:24;;;;;;;3.00;1.37;;;;;;;2.38;100.00;97363.81;5110825;28;20294;-74
2021/01/14 05:16:52;;;;;;;3.30;1.40;;;;;;;2.40;100.00;97367.84;5112037;28;20250;-72
2021/01/14 05:19:18;;;;;;;7.93;1.80;;;;;;;2.34;100.00;97368.25;5094179;28;20235;-72
2021/01/14 05:21:45;;;;;;;8.77;1.90;;;;;;;2.31;100.00;97379.75;5093503;28;20200;-72
2021/01/14 05:24:17;;;;;;;3.23;1.50;;;;;;;2.30;100.00;97383.59;5092691;28;20288;-72
2021/01/14 05:26:44;;;;;;;6.47;1.67;;;;;;;2.19;100.00;97387.63;5093713;28;20650;-72
2021/01/14 05:29:15;;;;;;;4.93;1.30;;;;;;;2.27;100.00;97390.44;5111909;28;20310;-71
2021/01/14 05:31:42;;;;;;;5.90;1.47;;;;;;;2.19;100.00;97398.50;5111347;28;20606;-71
2021/01/14 05:34:08;;;;;;;6.47;2.07;;;;;;;2.31;100.00;97405.06;5110947;28;20307;-71
2021/01/14 05:37:03;;;;;;;5.27;1.60;;;;;;;2.37;100.00;97405.75;5111192;28;20210;-71
2021/01/14 05:39:30;;;;;;;4.57;1.47;;;;;;;2.28;100.00;97413.03;5111872;28;20203;-70
2021/01/14 05:41:57;;;;;;;3.70;1.43;;;;;;;2.30;100.00;97422.47;5111587;28;20226;-70
2021/01/14 05:44:37;;;;;;;5.20;1.27;;;;;;;2.30;100.00;97419.75;5110724;28;20200;-70
2021/01/14 05:47:37;;;;;;;3.80;1.20;;;;;;;2.30;100.00;97421.69;5110646;28;20283;-70
2021/01/14 05:50:05;;;;;;;4.93;1.00;;;;;;;2.26;100.00;97428.84;5111627;28;20199;-71
2021/01/14 05:52:33;;;;;;;5.90;1.40;;;;;;;2.15;100.00;97424.69;5093408;28;20224;-71
2021/01/14 05:55:03;;;;;;;4.53;1.43;;;;;;;2.05;100.00;97423.78;5109981;28;20242;-71
2021/01/14 05:57:32;;;;;;;6.40;1.10;;;;;;;1.94;100.00;97429.69;5111084;28;20405;-71
2021/01/14 06:00:19;;;;;;;4.70;1.00;;;;;;;1.95;100.00;97420.44;5111534;28;20208;-73
2021/01/14 06:02:45;;;;;;;3.80;1.10;;;;;;;2.05;100.00;97414.81;5110782;28;20204;-73
2021/01/14 06:05:27;;;;;;;9.20;1.50;;;;;;;1.99;100.00;97422.25;5081968;28;20208;-74
2021/01/14 06:07:54;;;;;;;5.03;1.30;;;;;;;2.16;100.00;97423.59;5086482;28;20709;-73
2021/01/14 06:10:34;;;;;;;4.20;1.10;;;;;;;2.12;100.00;97425.31;5069007;28;20216;-73
2021/01/14 06:13:01;;;;;;;4.63;1.33;;;;;;;2.14;100.00;97423.06;5104839;28;20215;-73
2021/01/14 06:15:27;;;;;;;5.07;1.33;;;;;;;2.06;100.00;97425.38;5110255;28;20222;-75
2021/01/14 06:17:54;;;;;;;4.47;1.23;;;;;;;1.94;100.00;97433.22;5111403;28;20680;-72
2021/01/14 06:20:20;;;;;;;6.20;1.43;;;;;;;2.05;100.00;97445.56;5132728;27;20209;-73
2021/01/14 06:22:46;;;;;;;8.33;1.53;;;;;;;2.11;100.00;97450.88;5127811;27;20661;-72
2021/01/14 06:25:12;;;;;;;5.37;1.43;;;;;;;2.14;100.00;97461.16;5113183;28;20288;-72
2021/01/14 06:27:54;;;;;;;5.40;1.60;;;;;;;2.10;100.00;97454.72;5097056;28;20251;-71
2021/01/14 06:30:20;;;;;;;7.63;1.57;;;;;;;2.13;100.00;97456.84;5114269;28;20768;-74
2021/01/14 06:33:00;;;;;;;4.80;1.30;;;;;;;2.16;100.00;97467.13;5080062;28;20252;-75
2021/01/14 06:35:27;;;;;;;7.83;1.70;;;;;;;2.02;100.00;97467.13;5092505;28;20796;-72
2021/01/14 06:37:55;;;;;;;5.70;1.50;;;;;;;1.99;100.00;97476.66;5092904;28;20713;-74
2021/01/14 06:40:28;;;;;;;5.40;1.20;;;;;;;2.11;100.00;97489.81;5094737;28;20568;-74
2021/01/14 06:42:57;;;;;;;5.73;1.37;;;;;;;2.16;100.00;97486.16;5081656;28;20354;-76
2021/01/14 06:45:36;;;;;;;3.07;1.20;;;;;;;2.15;100.00;97492.72;5093286;28;20232;-74
2021/01/14 06:48:12;;;;;;;5.00;1.60;;;;;;;2.10;100.00;97495.56;5073993;28;20958;-76
2021/01/14 06:50:48;;;;;;;5.63;1.57;;;;;;;2.11;100.00;97494.44;5090319;28;21008;-75
2021/01/14 06:53:20;;;;;;;6.93;1.43;;;;;;;2.10;100.00;97495.56;5088587;28;20220;-74
2021/01/14 06:55:49;;;;;;;5.07;1.13;;;;;;;2.08;100.00;97478.72;5088290;28;20236;-75
2021/01/14 06:58:16;;;;;;;7.63;1.13;;;;;;;2.00;100.00;97491.91;5071801;28;20373;-75
2021/01/14 07:00:49;;;;;;;6.10;1.20;;;;;;;2.01;100.00;97506.28;5090553;28;20298;-76
2021/01/14 07:03:23;;;;;;;4.27;1.47;;;;;;;2.11;100.00;97527.09;5092334;28;20661;-74
2021/01/14 07:05:55;;;;;;;5.10;1.03;;;;;;;2.16;100.00;97535.16;5093590;28;20622;-73
2021/01/14 07:08:41;;;;;;;5.77;1.20;;;;;;;2.12;100.00;97539.59;5093949;28;20278;-74
2021/01/14 07:11:16;;;;;;;6.23;1.73;;;;;;;2.25;100.00;97536.09;5079217;28;20673;-74
2021/01/14 07:13:46;;;;;;;6.63;1.30;;;;;;;2.05;100.00;97532.63;5095566;28;20219;-74
2021/01/14 07:16:16;;;;;;;5.30;1.47;;;;;;;1.99;100.00;97544.69;5114438;28;20617;-74
2021/01/14 07:18:46;;;;;;;5.73;1.50;;;;;;;2.01;100.00;97545.19;5096092;28;20274;-74
2021/01/14 07:21:31;;;;;;;5.03;1.40;;;;;;;2.06;100.00;97556.00;5114567;28;20239;-74
2021/01/14 07:24:04;;;;;;;3.03;1.13;;;;;;;2.06;100.00;97549.75;5113592;28;20818;-74
2021/01/14 07:26:32;;;;;;;4.77;1.40;;;;;;;2.04;100.00;97555.47;5114228;28;20288;-74
2021/01/14 07:29:04;;;;;;;3.57;1.23;;;;;;;2.03;100.00;97558.50;5114090;28;20331;-74
2021/01/14 07:31:30;;;;;;;4.40;1.77;;;;;;;1.89;100.00;97561.19;5114083;28;20196;-76
2021/01/14 07:33:57;;;;;;;3.70;1.37;;;;;;;2.03;100.00;97563.94;5113116;28;20260;-74
2021/01/14 07:36:26;;;;;;;3.50;1.20;;;;;;;1.95;100.00;97570.06;5114330;28;20269;-76
2021/01/14 07:38:57;;;;;;;5.97;1.23;;;;;;;2.00;100.00;97570.78;5113896;28;20282;-76
2021/01/14 07:41:23;;;;;;;3.20;1.20;;;;;;;2.06;100.00;97576.97;5114184;28;20235;-75
2021/01/14 07:43:50;;;;;;;4.23;1.20;;;;;;;2.02;100.00;97584.91;5112847;28;20811;-75
2021/01/14 07:46:23;;;;;;;5.30;1.30;;;;;;;2.05;100.00;97595.19;5114374;28;20235;-73
2021/01/14 07:48:51;;;;;;;5.30;1.30;;;;;;;2.35;100.00;97612.16;5095706;28;20300;-74
2021/01/14 07:51:20;;;;;;;3.07;1.00;;;;;;;2.39;100.00;97596.84;5114464;28;20681;-75
2021/01/14 07:54:07;;;;;;;6.03;1.10;;;;;;;2.27;100.00;97612.81;5097500;28;20220;-72
2021/01/14 07:56:51;;;;;;;7.47;1.70;;;;;;;2.25;100.00;97615.84;5122636;27;20950;-75
2021/01/14 07:59:30;;;;;;;3.97;1.20;;;;;;;2.17;100.00;97611.09;5097708;28;20236;-75
2021/01/14 08:02:07;;;;;;;6.47;1.50;;;;;;;2.23;100.00;97612.59;5091956;28;20263;-75
2021/01/14 08:04:47;;;;;;;4.20;1.30;;;;;;;2.21;100.00;97624.91;5091433;28;20274;-73
2021/01/14 08:07:23;;;;;;;4.63;1.30;;;;;;;2.55;100.00;97620.78;5092532;28;20224;-73
2021/01/14 08:09:51;;;;;;;7.17;1.20;;;;;;;2.65;100.00;97639.66;5092608;28;20246;-73
2021/01/14 08:12:21;;;;;;;5.40;1.50;;;;;;;2.77;100.00;97641.91;5105643;28;20227;-75
2021/01/14 08:14:48;;;;;;;4.10;1.43;;;;;;;2.76;100.00;97646.56;5112682;28;20239;-74
2021/01/14 08:17:26;;;;;;;5.67;1.20;;;;;;;2.60;100.00;97644.38;5113080;28;20223;-73
2021/01/14 08:19:54;;;;;;;3.90;1.03;;;;;;;2.64;100.00;97656.31;5113478;28;20298;-73
2021/01/14 08:22:21;;;;;;;3.07;1.30;;;;;;;2.68;100.00;97676.41;5113169;28;20266;-74
2021/01/14 08:24:51;;;;;;;6.87;1.43;;;;;;;2.56;100.00;97681.47;5094267;28;20232;-74
2021/01/14 08:27:35;;;;;;;4.17;1.10;;;;;;;2.58;100.00;97695.63;5112933;28;20231;-73
2021/01/14 08:30:16;;;;;;;6.13;2.00;;;;;;;2.62;100.00;97702.91;5113239;28;20261;-74
2021/01/14 08:32:49;;;;;;;4.83;1.00;;;;;;;2.61;100.00;97714.09;5112350;28;20271;-74
2021/01/14 08:35:28;;;;;;;4.13;1.33;;;;;;;2.67;100.00;97721.88;5095705;28;20203;-74
2021/01/14 08:38:07;;;;;;;4.10;1.00;;;;;;;2.63;100.00;97725.50;5101528;28;20224;-74
2021/01/14 08:40:36;;;;;;;5.60;1.20;;;;;;;2.67;100.00;97737.41;5089026;28;20200;-76
2021/01/14 08:43:07;;;;;;;6.97;2.17;;;;;;;2.45;100.00;97735.31;5091488;27;20200;-74
2021/01/14 08:45:50;;;;;;;4.77;1.67;;;;;;;2.55;100.00;97732.44;5113374;27;20203;-75
2021/01/14 08:48:26;;;;;;;10.87;2.70;;;;;;;2.68;100.00;97745.28;5098132;27;20266;-75
2021/01/14 08:50:55;;;;;;;7.67;2.30;;;;;;;2.75;100.00;97739.47;5106406;28;20215;-75
2021/01/14 08:53:29;;;;;;;12.13;2.10;;;;;;;2.67;100.00;97742.84;5107416;28;20227;-72
2021/01/14 08:55:58;;;;;;;2.93;1.37;;;;;;;2.67;100.00;97749.13;5108860;28;20204;-77
2021/01/14 08:58:43;;;;;;;6.87;1.57;;;;;;;2.68;100.00;97750.72;5107517;28;20243;-76
2021/01/14 09:01:19;;;;;;;8.43;1.90;;;;;;;2.52;100.00;97767.63;5110661;27;20294;-76
2021/01/14 09:03:47;;;;;;;7.03;1.50;;;;;;;2.52;100.00;97767.63;5091359;28;20227;-75
2021/01/14 09:06:28;;;;;;;7.47;1.60;;;;;;;2.57;100.00;97770.25;5128385;27;20203;-75
2021/01/14 09:08:59;;;;;;;3.87;1.57;;;;;;;2.47;100.00;97765.78;5120752;27;20287;-76
2021/01/14 09:11:26;;;;;;;7.87;1.60;;;;;;;2.48;100.00;97772.03;5127293;27;20199;-75
2021/01/14 09:14:11;;;;;;;9.70;1.60;;;;;;;2.53;100.00;97775.50;5108914;27;20227;-75
2021/01/14 09:16:39;;;;;;;5.17;1.80;;;;;;;2.74;100.00;97786.88;5109495;27;20199;-74
2021/01/14 09:19:18;;;;;;;4.03;1.60;;;;;;;2.75;100.00;97785.78;5127486;27;20349;-72
2021/01/14 09:21:45;;;;;;;5.17;1.40;;;;;;;2.68;100.00;97804.41;5093218;28;20207;-71
2021/01/14 09:24:16;;;;;;;4.27;1.50;;;;;;;2.77;100.00;97808.09;5109796;28;20294;-73
2021/01/14 09:26:47;;;;;;;4.50;1.57;;;;;;;2.65;100.00;97808.53;5094367;28;20685;-74
2021/01/14 09:29:13;;;;;;;4.00;1.50;;;;;;;2.58;100.00;97823.63;5097599;28;20286;-74
2021/01/14 09:31:41;;;;;;;7.83;1.40;;;;;;;2.80;100.00;97829.28;5116220;28;20754;-72
2021/01/14 09:34:09;;;;;;;9.63;1.70;;;;;;;2.87;100.00;97827.00;5103469;28;20264;-73
2021/01/14 09:36:36;;;;;;;6.17;1.70;;;;;;;2.67;100.00;97835.47;5112610;28;20211;-74
2021/01/14 09:39:07;;;;;;;4.17;1.20;;;;;;;2.83;100.00;97845.03;5103472;28;20258;-72
2021/01/14 09:41:35;;;;;;;5.33;1.47;;;;;;;2.98;100.00;97851.09;5107223;28;20265;-72
2021/01/14 09:44:13;;;;;;;7.97;1.67;;;;;;;2.70;100.00;97856.69;5105337;28;20573;-73
2021/01/14 09:46:45;;;;;;;4.40;1.60;;;;;;;2.86;100.00;97855.38;5104230;28;20276;-75
2021/01/14 09:49:21;;;;;;;10.00;1.97;;;;;;;2.70;100.00;97859.41;5110370;28;20250;-72
2021/01/14 09:51:50;;;;;;;7.77;2.77;;;;;;;2.75;100.00;97870.25;5131443;28;20211;-72
2021/01/14 09:54:17;;;;;;;5.87;1.80;;;;;;;2.57;100.00;97869.13;5113365;27;20320;-72
2021/01/14 09:56:56;;;;;;;3.97;1.93;;;;;;;2.70;100.00;97876.56;5133797;27;20271;-72
2021/01/14 09:59:35;;;;;;;6.13;2.07;;;;;;;2.63;100.00;97873.38;5132212;27;20715;-73
2021/01/14 10:02:16;;;;;;;9.90;2.13;;;;;;;2.79;100.00;97876.72;5115408;28;20226;-72
2021/01/14 10:04:44;;;;;;;6.97;2.00;;;;;;;2.87;100.00;97882.31;5127618;27;20209;-73
2021/01/14 10:07:21;;;;;;;5.33;1.80;;;;;;;3.17;100.00;97878.34;5133898;27;20219;-72
2021/01/14 10:09:53;;;;;;;2.57;1.50;;;;;;;3.09;100.00;97876.28;5135175;27;20234;-73
2021/01/14 10:12:21;;;;;;;8.33;1.73;;;;;;;3.16;100.00;97876.69;5122178;27;20245;-72
2021/01/14 10:14:47;;;;;;;6.50;2.00;;;;;;;2.98;100.00;97885.69;5113651;28;20220;-73
2021/01/14 10:17:15;;;;;;;6.93;1.90;;;;;;;2.92;100.00;97884.16;5114427;28;20228;-72
2021/01/14 10:19:47;;;;;;;7.70;2.33;;;;;;;2.83;100.00;97889.44;5120085;27;20227;-73
2021/01/14 10:22:14;;;;;;;4.27;1.60;;;;;;;3.02;100.00;97892.19;5132055;27;20282;-72
2021/01/14 10:24:40;;;;;;;5.03;2.00;;;;;;;2.98;100.00;97894.69;5113126;28;20195;-73
2021/01/14 10:27:14;;;;;;;4.63;1.97;;;;;;;3.08;100.00;97891.03;5113535;28;20239;-71
2021/01/14 10:29:44;;;;;;;4.93;1.70;;;;;;;3.21;100.00;97901.19;5114718;28;20581;-72
2021/01/14 10:32:13;;;;;;;5.43;1.90;;;;;;;3.14;100.00;97899.94;5114347;28;20697;-73
2021/01/14 10:34:50;;;;;;;8.33;2.73;;;;;;;3.39;100.00;97905.00;5113312;28;20219;-73
2021/01/14 10:37:26;;;;;;;4.33;1.90;;;;;;;3.33;100.00;97907.00;5092759;28;20287;-72
2021/01/14 10:40:00;;;;;;;7.53;1.90;;;;;;;3.44;100.00;97889.34;5113359;28;20295;-72
2021/01/14 10:42:27;;;;;;;5.17;1.93;;;;;;;3.43;100.00;97886.94;5113589;28;20298;-72
2021/01/14 10:44:54;;;;;;;4.03;1.83;;;;;;;3.45;100.00;97888.25;5113210;28;20204;-71
2021/01/14 10:47:22;;;;;;;6.07;1.90;;;;;;;3.83;100.00;97897.16;5096308;28;20224;-73
2021/01/14 10:49:49;;;;;;;7.13;1.70;;;;;;;4.02;100.00;97900.63;5097371;28;20207;-72
2021/01/14 10:52:15;;;;;;;3.83;1.83;;;;;;;4.02;100.00;97901.44;5115495;28;20779;-72
2021/01/14 10:54:41;;;;;;;6.33;2.03;;;;;;;4.01;100.00;97891.63;5095700;28;20224;-72
2021/01/14 10:57:08;;;;;;;7.70;2.40;;;;;;;4.07;100.00;97884.97;5115213;28;20310;-71
2021/01/14 10:59:34;;;;;;;6.97;2.17;;;;;;;4.03;100.00;97885.88;5114973;28;20199;-73
2021/01/14 11:02:07;;;;;;;8.73;2.20;;;;;;;4.18;100.00;97888.31;5114619;28;20281;-70
2021/01/14 11:04:36;;;;;;;5.97;1.67;;;;;;;3.99;100.00;97896.59;5098583;28;20204;-70
2021/01/14 11:07:12;;;;;;;4.37;1.70;;;;;;;3.93;100.00;97903.25;5098054;28;20195;-70
2021/01/14 11:09:51;;;;;;;4.47;2.10;;;;;;;3.71;100.00;97902.28;5099497;28;20266;-69
2021/01/14 11:12:18;;;;;;;5.57;1.97;;;;;;;3.82;100.00;97900.97;5118232;28;20207;-73
2021/01/14 11:14:57;;;;;;;6.10;2.10;;;;;;;3.90;100.00;97898.41;5111276;28;20227;-72
2021/01/14 11:17:24;;;;;;;5.20;2.10;;;;;;;3.94;100.00;97887.69;5112433;28;20772;-74
2021/01/14 11:20:03;;;;;;;6.40;2.23;;;;;;;3.66;100.00;97886.00;5122793;27;20211;-74
2021/01/14 11:22:31;;;;;;;5.00;1.60;;;;;;;3.75;100.00;97879.56;5095644;28;20281;-73
2021/01/14 11:24:58;;;;;;;8.43;1.80;;;;;;;3.60;100.00;97887.19;5086561;28;20661;-73
2021/01/14 11:27:28;;;;;;;5.80;2.50;;;;;;;3.53;100.00;97881.31;5094135;28;20255;-73
2021/01/14 11:29:54;;;;;;;6.53;2.60;;;;;;;3.53;100.00;97889.47;5095679;28;20291;-74
2021/01/14 11:32:20;;;;;;;5.47;2.27;;;;;;;3.41;100.00;97897.31;5112931;28;20676;-74
2021/01/14 11:34:46;;;;;;;4.93;1.97;;;;;;;3.48;100.00;97892.31;5111994;28;20231;-73
2021/01/14 11:37:13;;;;;;;4.93;2.00;;;;;;;3.47;100.00;97898.84;5095194;28;20227;-73
2021/01/14 11:39:41;;;;;;;5.43;2.30;;;;;;;3.52;100.00;97898.78;5113019;28;20242;-72
2021/01/14 11:42:07;;;;;;;7.80;2.47;;;;;;;3.56;100.00;97897.88;5112749;28;20563;-71
2021/01/14 11:44:35;;;;;;;5.50;2.20;;;;;;;3.48;100.00;97886.84;5077103;28;20200;-75
2021/01/14 11:47:01;;;;;;;7.03;2.10;;;;;;;3.49;100.00;97893.91;5077740;28;20294;-74
2021/01/14 11:49:28;;;;;;;4.47;1.70;;;;;;;3.52;100.00;97887.88;5078207;28;20260;-74
2021/01/14 11:51:54;;;;;;;7.17;2.00;;;;;;;3.40;100.00;97888.31;5113474;28;20242;-74
2021/01/14 11:54:20;;;;;;;3.83;1.70;;;;;;;3.11;100.00;97898.59;5077259;28;20795;-74
2021/01/14 11:56:51;;;;;;;6.30;1.97;;;;;;;3.28;100.00;97898.06;5095430;28;20287;-73
2021/01/14 11:59:17;;;;;;;3.80;1.70;;;;;;;3.23;100.00;97904.41;5095619;28;20215;-74
2021/01/14 12:01:43;;;;;;;5.23;1.97;;;;;;;3.41;100.00;97892.69;5095299;28;20203;-74
2021/01/14 12:04:11;;;;;;;5.53;1.87;;;;;;;3.37;100.00;97897.13;5094365;28;20257;-74
2021/01/14 12:06:37;;;;;;;3.80;1.70;;;;;;;3.48;100.00;97900.47;5094826;28;20287;-74
2021/01/14 12:09:04;;;;;;;6.87;1.70;;;;;;;3.37;100.00;97899.84;5112951;28;20311;-74
2021/01/14 12:11:30;;;;;;;8.77;2.03;;;;;;;3.42;100.00;97890.75;5113054;28;20192;-72
2021/01/14 12:13:56;;;;;;;6.20;1.90;;;;;;;3.24;100.00;97899.78;5076550;28;20227;-73
2021/01/14 12:16:22;;;;;;;8.47;2.40;;;;;;;3.41;100.00;97894.59;5111391;28;20642;-73
2021/01/14 12:18:48;;;;;;;4.67;1.90;;;;;;;3.40;100.00;97892.97;5106935;28;20224;-73
2021/01/14 12:21:15;;;;;;;4.40;1.90;;;;;;;3.41;100.00;97881.78;5091657;28;20204;-74
2021/01/14 12:23:45;;;;;;;6.33;2.10;;;;;;;3.39;100.00;97891.34;5097442;27;20201;-71